createdAt,value
2019-01-09T00:00:01.784Z,18.4
2019-01-09T00:01:02.241Z,18.4
2019-01-09T00:02:03.389Z,19.4
2019-01-09T00:03:02.915Z,22
2019-01-09T00:04:03.184Z,18.4
2019-01-09T00:05:03.029Z,17.3
2019-01-09T00:06:03.221Z,18.4
2019-01-09T00:07:03.628Z,27
2019-01-09T00:08:03.784Z,27
2019-01-09T00:09:03.639Z,20.9
2019-01-09T00:10:03.720Z,24.5
2019-01-09T00:11:03.727Z,24.5
2019-01-09T00:12:02.681Z,25.6
2019-01-09T00:13:03.122Z,24.5
2019-01-09T00:14:02.814Z,23.4
2019-01-09T00:15:04.703Z,23.4
2019-01-09T00:16:03.555Z,23.4
2019-01-09T00:17:02.885Z,24.5
2019-01-09T00:18:03.857Z,24.5
2019-01-09T00:19:03.614Z,23.4
2019-01-09T00:20:03.481Z,23.4
2019-01-09T00:21:03.384Z,22
2019-01-09T00:22:03.083Z,22
2019-01-09T00:23:03.041Z,22
2019-01-09T00:24:02.946Z,22
2019-01-09T00:25:03.762Z,20.9
2019-01-09T00:26:03.640Z,20.9
2019-01-09T00:27:01.973Z,24.5
2019-01-09T00:28:02.098Z,25.6
2019-01-09T00:29:03.461Z,20.9
2019-01-09T00:30:03.134Z,20.9
2019-01-09T00:31:02.709Z,23.4
2019-01-09T00:32:02.927Z,23.4
2019-01-09T00:33:03.554Z,18.4
2019-01-09T00:34:03.510Z,18.4
2019-01-09T00:35:03.671Z,28.1
2019-01-09T00:36:03.698Z,28.1
2019-01-09T00:37:02.654Z,18.4
2019-01-09T00:38:03.791Z,18.4
2019-01-09T00:39:03.590Z,22
2019-01-09T00:40:03.463Z,22
2019-01-09T00:41:03.429Z,27
2019-01-09T00:42:03.475Z,27
2019-01-09T00:43:02.833Z,23.4
2019-01-09T00:44:02.897Z,24.5
2019-01-09T00:45:03.258Z,20.9
2019-01-09T00:46:03.262Z,28.1
2019-01-09T00:47:03.211Z,28.1
2019-01-09T00:48:03.398Z,24.5
2019-01-09T00:49:03.461Z,28.1
2019-01-09T00:50:03.683Z,28.1
2019-01-09T00:51:02.721Z,19.4
2019-01-09T00:52:03.013Z,25.6
2019-01-09T00:53:02.991Z,25.6
2019-01-09T00:54:02.392Z,27
2019-01-09T00:55:02.565Z,28.1
2019-01-09T00:56:03.409Z,28.1
2019-01-09T00:57:03.243Z,25.6
2019-01-09T00:58:03.292Z,25.6
2019-01-09T00:59:03.591Z,18.4
2019-01-09T01:00:03.475Z,25.6
2019-01-09T01:01:03.608Z,25.6
2019-01-09T01:02:03.058Z,23.4
2019-01-09T01:03:03.510Z,23.4
2019-01-09T01:04:03.363Z,23.4
2019-01-09T01:05:03.234Z,23.4
2019-01-09T01:06:02.672Z,23.4
2019-01-09T01:07:03.652Z,23.4
2019-01-09T01:08:02.767Z,23.4
2019-01-09T01:09:03.721Z,22
2019-01-09T01:10:02.894Z,24.5
2019-01-09T01:11:03.205Z,24.5
2019-01-09T01:12:02.892Z,19.4
2019-01-09T01:13:03.323Z,20.9
2019-01-09T01:14:03.024Z,25.6
2019-01-09T01:15:03.518Z,25.6
2019-01-09T01:16:03.478Z,22
2019-01-09T01:18:01.175Z,18.4
2019-01-09T01:18:03.198Z,18.4
2019-01-09T01:19:03.236Z,17.3
2019-01-09T01:20:03.143Z,19.4
2019-01-09T01:21:02.470Z,17.3
2019-01-09T01:22:02.187Z,19.4
2019-01-09T01:23:03.172Z,19.4
2019-01-09T01:24:03.357Z,20.9
2019-01-09T01:25:03.571Z,20.9
2019-01-09T01:26:03.117Z,28.1
2019-01-09T01:27:02.824Z,28.1
2019-01-09T01:28:03.498Z,19.4
2019-01-09T01:29:03.585Z,19.4
2019-01-09T01:30:03.422Z,19.4
2019-01-09T01:31:03.319Z,19.4
2019-01-09T01:32:03.036Z,19.4
2019-01-09T01:33:02.891Z,18.4
2019-01-09T01:34:03.615Z,24.5
2019-01-09T01:35:03.757Z,24.5
2019-01-09T01:36:03.478Z,20.9
2019-01-09T01:37:03.258Z,17.3
2019-01-09T01:38:03.129Z,18.4
2019-01-09T01:39:02.972Z,25.6
2019-01-09T01:40:02.987Z,25.6
2019-01-09T01:41:02.828Z,20.9
2019-01-09T01:42:02.952Z,20.9
2019-01-09T01:43:03.345Z,25.6
2019-01-09T01:44:03.571Z,22
2019-01-09T01:45:03.104Z,30.6
2019-01-09T01:46:02.747Z,30.6
2019-01-09T01:47:02.798Z,22
2019-01-09T01:48:03.009Z,24.5
2019-01-09T01:49:02.909Z,24.5
2019-01-09T01:50:03.442Z,25.6
2019-01-09T01:51:03.297Z,28.1
2019-01-09T01:52:03.289Z,28.1
2019-01-09T01:53:03.740Z,23.4
2019-01-09T01:54:03.519Z,23.4
2019-01-09T01:55:03.227Z,31.7
2019-01-09T01:56:03.818Z,31.7
2019-01-09T01:57:03.217Z,31.7
2019-01-09T01:58:03.219Z,22
2019-01-09T01:59:03.325Z,22
2019-01-09T02:00:03.274Z,22
2019-01-09T02:01:03.671Z,25.6
2019-01-09T02:02:02.864Z,24.5
2019-01-09T02:03:03.460Z,23.4
2019-01-09T02:04:03.716Z,23.4
2019-01-09T02:05:03.279Z,25.6
2019-01-09T02:06:04.558Z,25.6
2019-01-09T02:07:03.844Z,29.5
2019-01-09T02:08:03.421Z,29.5
2019-01-09T02:09:03.591Z,24.5
2019-01-09T02:10:03.540Z,22
2019-01-09T02:11:03.261Z,24.5
2019-01-09T02:12:03.061Z,24.5
2019-01-09T02:13:02.961Z,24.5
2019-01-09T02:14:02.159Z,25.6
2019-01-09T02:15:01.793Z,25.6
2019-01-09T02:16:03.180Z,25.6
2019-01-09T02:17:03.240Z,25.6
2019-01-09T02:18:03.371Z,25.6
2019-01-09T02:19:03.230Z,25.6
2019-01-09T02:20:03.277Z,25.6
2019-01-09T02:21:03.065Z,25.6
2019-01-09T02:22:02.836Z,25.6
2019-01-09T02:23:03.129Z,25.6
2019-01-09T02:24:03.403Z,25.6
2019-01-09T02:25:03.298Z,25.6
2019-01-09T02:26:02.955Z,19.4
2019-01-09T02:27:03.567Z,19.4
2019-01-09T02:28:03.202Z,19.4
2019-01-09T02:29:03.132Z,19.4
2019-01-09T02:30:03.576Z,19.4
2019-01-09T02:31:03.149Z,19.4
2019-01-09T02:32:03.384Z,19.4
2019-01-09T02:33:03.816Z,19.4
2019-01-09T02:34:03.597Z,19.4
2019-01-09T02:35:03.023Z,19.4
2019-01-09T02:36:14.141Z,19.4
2019-01-09T02:37:03.226Z,19.4
2019-01-09T02:38:03.310Z,19.4
2019-01-09T02:39:03.025Z,19.4
2019-01-09T02:40:03.041Z,0
2019-01-09T02:41:03.196Z,19.4
2019-01-09T02:42:03.423Z,19.4
2019-01-09T02:43:03.733Z,19.4
2019-01-09T04:39:31.445Z,14.8
2019-01-09T04:40:03.645Z,17.3
2019-01-09T04:41:02.785Z,18.4
2019-01-09T04:42:02.826Z,12.2
2019-01-09T04:43:03.769Z,15.8
2019-01-09T04:44:03.072Z,15.8
2019-01-09T04:45:02.712Z,22
2019-01-09T04:46:03.755Z,20.9
2019-01-09T04:47:03.099Z,22
2019-01-09T04:48:03.158Z,22
2019-01-09T04:49:03.240Z,15.8
2019-01-09T04:50:03.073Z,15.8
2019-01-09T04:51:03.622Z,14.8
2019-01-09T04:52:02.944Z,14.8
2019-01-09T04:53:03.014Z,17.3
2019-01-09T04:54:02.114Z,20.9
2019-01-09T04:55:03.659Z,19.4
2019-01-09T04:56:02.060Z,18.4
2019-01-09T04:57:03.194Z,18.4
2019-01-09T04:58:03.394Z,19.4
2019-01-09T04:59:03.101Z,15.8
2019-01-09T05:00:03.733Z,17.3
2019-01-09T05:01:03.369Z,13.3
2019-01-09T05:02:03.407Z,13.3
2019-01-09T05:03:03.433Z,13.3
2019-01-09T05:04:03.253Z,13.3
2019-01-09T05:05:03.536Z,13.3
2019-01-09T05:06:03.592Z,13.3
2019-01-09T05:07:03.875Z,13.3
2019-01-09T05:08:03.827Z,13.3
2019-01-09T05:09:03.840Z,18.4
2019-01-09T05:10:03.517Z,13.3
2019-01-09T05:11:03.415Z,13.3
2019-01-09T05:12:03.101Z,14.8
2019-01-09T05:13:03.338Z,14.8
2019-01-09T05:14:03.345Z,11.2
2019-01-09T05:15:03.529Z,12.2
2019-01-09T05:16:03.361Z,12.2
2019-01-09T05:17:03.289Z,19.4
2019-01-09T05:18:01.917Z,13.3
2019-01-09T05:19:03.798Z,9.7
2019-01-09T05:20:03.575Z,9.7
2019-01-09T05:21:02.807Z,15.8
2019-01-09T05:22:03.784Z,15.8
2019-01-09T05:23:02.805Z,14.8
2019-01-09T05:24:03.715Z,17.3
2019-01-09T05:25:03.395Z,14.8
2019-01-09T05:26:03.327Z,14.8
2019-01-09T05:27:03.618Z,13.3
2019-01-09T05:28:02.889Z,13.3
2019-01-09T05:29:03.201Z,11.2
2019-01-09T05:30:03.954Z,13.3
2019-01-09T05:31:08.273Z,13.3
2019-01-09T05:32:03.104Z,13.3
2019-01-09T05:33:03.223Z,13.3
2019-01-09T05:34:03.276Z,11.2
2019-01-09T05:35:03.012Z,11.2
2019-01-09T05:36:03.828Z,15.8
2019-01-09T05:37:10.189Z,15.8
2019-01-09T05:38:03.838Z,14.8
2019-01-09T05:39:02.924Z,14.8
2019-01-09T05:40:04.009Z,13.3
2019-01-09T05:41:02.894Z,13.3
2019-01-09T05:42:03.080Z,12.2
2019-01-09T05:43:03.231Z,12.2
2019-01-09T05:44:02.306Z,13.3
2019-01-09T05:45:02.874Z,15.8
2019-01-09T05:46:03.659Z,14.8
2019-01-09T05:47:03.263Z,13.3
2019-01-09T05:48:03.552Z,13.3
2019-01-09T05:49:03.544Z,13.3
2019-01-09T05:50:03.283Z,15.8
2019-01-09T05:51:02.990Z,13.3
2019-01-09T05:52:03.334Z,15.8
2019-01-09T05:53:03.179Z,15.8
2019-01-09T05:54:03.097Z,17.3
2019-01-09T05:55:03.015Z,17.3
2019-01-09T05:56:02.957Z,15.8
2019-01-09T05:57:03.584Z,15.8
2019-01-09T05:58:03.541Z,17.3
2019-01-09T05:59:04.332Z,15.8
2019-01-09T06:00:03.608Z,17.3
2019-01-09T06:01:03.264Z,15.8
2019-01-09T06:02:03.068Z,15.8
2019-01-09T06:03:03.002Z,13.3
2019-01-09T06:04:02.954Z,13.3
2019-01-09T06:05:03.419Z,12.2
2019-01-09T06:06:03.453Z,17.3
2019-01-09T06:07:03.054Z,18.4
2019-01-09T06:08:02.588Z,18.4
2019-01-09T06:09:01.920Z,18.4
2019-01-09T06:10:02.435Z,17.3
2019-01-09T06:11:03.041Z,13.3
2019-01-09T06:12:03.490Z,14.8
2019-01-09T06:13:03.020Z,14.8
2019-01-09T06:14:03.370Z,17.3
2019-01-09T06:15:03.653Z,17.3
2019-01-09T06:16:03.550Z,17.3
2019-01-09T06:17:03.416Z,22
2019-01-09T06:18:03.886Z,19.4
2019-01-09T06:19:03.662Z,15.8
2019-01-09T06:20:03.515Z,18.4
2019-01-09T06:21:03.352Z,15.8
2019-01-09T06:22:03.578Z,15.8
2019-01-09T06:23:03.435Z,17.3
2019-01-09T06:24:03.414Z,15.8
2019-01-09T06:25:03.395Z,17.3
2019-01-09T06:26:03.415Z,17.3
2019-01-09T06:27:03.435Z,14.8
2019-01-09T06:28:03.457Z,14.8
2019-01-09T06:29:03.630Z,14.8
2019-01-09T06:30:03.733Z,18.4
2019-01-09T06:31:03.707Z,18.4
2019-01-09T06:32:03.414Z,17.3
2019-01-09T06:33:03.080Z,17.3
2019-01-09T06:34:02.202Z,22
2019-01-09T06:35:02.580Z,20.9
2019-01-09T06:36:04.292Z,20.9
2019-01-09T06:37:02.850Z,19.4
2019-01-09T06:38:03.624Z,19.4
2019-01-09T06:39:03.186Z,15.8
2019-01-09T06:40:02.994Z,15.8
2019-01-09T06:41:02.964Z,17.3
2019-01-09T06:42:03.129Z,17.3
2019-01-09T06:43:03.671Z,15.8
2019-01-09T06:44:02.769Z,15.8
2019-01-09T06:45:03.720Z,24.5
2019-01-09T06:46:02.971Z,24.5
2019-01-09T06:47:03.511Z,15.8
2019-01-09T06:48:02.970Z,19.4
2019-01-09T06:49:03.077Z,22
2019-01-09T06:50:03.290Z,22
2019-01-09T06:51:03.075Z,23.4
2019-01-09T06:52:03.533Z,18.4
2019-01-09T06:53:02.993Z,19.4
2019-01-09T06:54:03.168Z,24.5
2019-01-09T06:55:02.636Z,25.6
2019-01-09T06:56:03.257Z,27
2019-01-09T06:57:03.256Z,27
2019-01-09T06:58:03.376Z,27
2019-01-09T06:59:02.798Z,24.5
2019-01-09T07:00:02.804Z,24.5
2019-01-09T07:01:02.908Z,24.5
2019-01-09T07:02:03.130Z,24.5
2019-01-09T07:03:03.184Z,22
2019-01-09T07:04:03.585Z,20.9
2019-01-09T07:05:03.018Z,17.3
2019-01-09T07:06:02.833Z,12.2
2019-01-09T07:07:03.719Z,12.2
2019-01-09T07:08:03.341Z,12.2
2019-01-09T07:09:03.375Z,14.8
2019-01-09T07:10:03.376Z,14.8
2019-01-09T07:11:02.998Z,18.4
2019-01-09T07:12:03.571Z,18.4
2019-01-09T07:13:03.772Z,15.8
2019-01-09T07:14:03.699Z,15.8
2019-01-09T07:15:14.083Z,17.3
2019-01-09T07:16:03.034Z,14.8
2019-01-09T07:17:03.905Z,12.2
2019-01-09T07:18:02.795Z,13.3
2019-01-09T07:19:03.811Z,13.3
2019-01-09T07:20:03.426Z,13.3
2019-01-09T07:21:02.946Z,13.3
2019-01-09T07:22:02.736Z,14.8
2019-01-09T07:23:03.860Z,13.3
2019-01-09T07:24:03.211Z,12.2
2019-01-09T07:25:03.028Z,12.2
2019-01-09T07:26:03.630Z,13.3
2019-01-09T07:27:03.382Z,13.3
2019-01-09T07:28:03.043Z,13.3
2019-01-09T07:29:03.551Z,13.3
2019-01-09T07:30:02.951Z,13.3
2019-01-09T07:31:03.254Z,13.3
2019-01-09T07:32:03.597Z,11.2
2019-01-09T07:33:03.627Z,11.2
2019-01-09T07:34:03.025Z,13.3
2019-01-09T07:35:03.466Z,12.2
2019-01-09T07:36:02.130Z,12.2
2019-01-09T07:37:01.711Z,11.2
2019-01-09T07:38:03.560Z,15.8
2019-01-09T07:39:03.164Z,12.2
2019-01-09T07:40:03.017Z,13.3
2019-01-09T07:41:03.660Z,13.3
2019-01-09T07:42:03.320Z,12.2
2019-01-09T07:43:03.165Z,12.2
2019-01-09T07:44:03.576Z,13.3
2019-01-09T07:45:03.809Z,14.8
2019-01-09T07:46:03.126Z,11.2
2019-01-09T07:47:03.656Z,13.3
2019-01-09T07:48:03.577Z,13.3
2019-01-09T07:49:03.374Z,12.2
2019-01-09T07:50:03.452Z,12.2
2019-01-09T07:51:03.219Z,12.2
2019-01-09T07:52:02.743Z,9.7
2019-01-09T07:53:03.595Z,9.7
2019-01-09T07:54:03.489Z,13.3
2019-01-09T07:55:03.521Z,15.8
2019-01-09T07:56:03.476Z,17.3
2019-01-09T07:57:02.960Z,14.8
2019-01-09T07:58:03.482Z,14.8
2019-01-09T07:59:01.910Z,15.8
2019-01-09T08:00:03.081Z,14.8
2019-01-09T08:01:03.476Z,15.8
2019-01-09T08:02:03.202Z,14.8
2019-01-09T08:03:03.550Z,14.8
2019-01-09T08:04:03.516Z,14.8
2019-01-09T08:05:03.760Z,14.8
2019-01-09T08:06:02.720Z,13.3
2019-01-09T08:07:02.917Z,17.3
2019-01-09T08:08:02.965Z,14.8
2019-01-09T08:09:02.984Z,13.3
2019-01-09T08:10:03.621Z,12.2
2019-01-09T08:11:03.463Z,9.7
2019-01-09T08:12:03.551Z,9.7
2019-01-09T08:13:02.915Z,14.8
2019-01-09T08:14:02.778Z,14.8
2019-01-09T08:15:03.522Z,14.8
2019-01-09T08:16:03.116Z,14.8
2019-01-09T08:17:03.560Z,12.2
2019-01-09T08:18:03.614Z,12.2
2019-01-09T08:19:03.678Z,15.8
2019-01-09T08:20:03.349Z,15.8
2019-01-09T08:21:06.109Z,15.8
2019-01-09T08:22:03.694Z,19.4
2019-01-09T08:23:03.530Z,15.8
2019-01-09T08:24:02.595Z,14.8
2019-01-09T08:25:03.427Z,14.8
2019-01-09T08:26:02.923Z,11.2
2019-01-09T08:27:03.360Z,13.3
2019-01-09T08:28:02.867Z,13.3
2019-01-09T08:29:03.427Z,14.8
2019-01-09T08:30:03.330Z,11.2
2019-01-09T08:31:02.963Z,12.2
2019-01-09T08:32:03.926Z,12.2
2019-01-09T08:33:03.619Z,13.3
2019-01-09T08:34:03.777Z,13.3
2019-01-09T08:35:03.681Z,12.2
2019-01-09T08:36:03.554Z,15.8
2019-01-09T08:37:03.355Z,14.8
2019-01-09T08:38:03.612Z,14.8
2019-01-09T08:39:03.296Z,14.8
2019-01-09T08:40:03.404Z,14.8
2019-01-09T08:41:03.639Z,12.2
2019-01-09T08:42:03.596Z,12.2
2019-01-09T08:43:03.198Z,15.8
2019-01-09T08:44:03.206Z,15.8
2019-01-09T08:45:02.805Z,13.3
2019-01-09T08:46:03.249Z,13.3
2019-01-09T08:47:03.091Z,12.2
2019-01-09T08:48:03.482Z,14.8
2019-01-09T08:49:03.001Z,14.8
2019-01-09T08:50:02.934Z,14.8
2019-01-09T08:51:03.231Z,15.8
2019-01-09T08:52:03.455Z,15.8
2019-01-09T08:53:03.674Z,14.8
2019-01-09T08:54:03.219Z,17.3
2019-01-09T08:55:03.509Z,15.8
2019-01-09T08:56:03.052Z,15.8
2019-01-09T08:57:03.657Z,17.3
2019-01-09T08:58:03.123Z,17.3
2019-01-09T08:59:03.624Z,13.3
2019-01-09T09:00:05.872Z,13.3
2019-01-09T09:01:03.661Z,15.8
2019-01-09T09:02:02.828Z,15.8
2019-01-09T09:03:03.593Z,15.8
2019-01-09T09:04:03.495Z,15.8
2019-01-09T09:05:03.699Z,15.8
2019-01-09T09:06:02.781Z,15.8
2019-01-09T09:07:03.099Z,15.8
2019-01-09T09:08:12.790Z,15.8
2019-01-09T09:09:03.610Z,13.3
2019-01-09T09:10:03.159Z,14.8
2019-01-09T09:11:02.967Z,12.2
2019-01-09T09:12:02.763Z,12.2
2019-01-09T09:13:02.834Z,12.2
2019-01-09T09:14:03.492Z,12.2
2019-01-09T09:15:03.086Z,13.3
2019-01-09T09:16:03.619Z,12.2
2019-01-09T09:17:03.278Z,12.2
2019-01-09T09:18:03.620Z,9.7
2019-01-09T09:19:03.111Z,15.8
2019-01-09T09:20:03.592Z,14.8
2019-01-09T09:21:02.827Z,14.8
2019-01-09T09:22:03.238Z,12.2
2019-01-09T09:23:03.111Z,12.2
2019-01-09T09:24:02.760Z,12.2
2019-01-09T09:25:03.073Z,13.3
2019-01-09T09:26:03.673Z,14.8
2019-01-09T09:27:02.865Z,14.8
2019-01-09T09:28:03.490Z,11.2
2019-01-09T09:29:02.974Z,11.2
2019-01-09T09:30:03.821Z,9.7
2019-01-09T09:31:03.717Z,9.7
2019-01-09T09:32:03.149Z,11.2
2019-01-09T09:33:03.239Z,9.7
2019-01-09T09:34:03.088Z,12.2
2019-01-09T09:35:03.802Z,13.3
2019-01-09T09:36:02.737Z,11.2
2019-01-09T09:37:03.096Z,11.2
2019-01-09T09:38:02.969Z,14.8
2019-01-09T09:39:03.594Z,13.3
2019-01-09T09:40:03.338Z,15.8
2019-01-09T09:41:03.691Z,20.9
2019-01-09T09:42:03.606Z,13.3
2019-01-09T09:43:03.639Z,13.3
2019-01-09T09:44:02.965Z,14.8
2019-01-09T09:45:02.919Z,14.8
2019-01-09T09:46:03.380Z,14.8
2019-01-09T09:47:03.428Z,17.3
2019-01-09T09:48:02.997Z,13.3
2019-01-09T09:49:03.075Z,17.3
2019-01-09T09:50:03.264Z,12.2
2019-01-09T09:51:03.175Z,12.2
2019-01-09T09:52:03.200Z,12.2
2019-01-09T09:53:03.545Z,13.3
2019-01-09T09:54:03.286Z,15.8
2019-01-09T09:55:03.249Z,15.8
2019-01-09T09:56:03.161Z,13.3
2019-01-09T09:57:03.047Z,18.4
2019-01-09T09:58:06.420Z,12.2
2019-01-09T09:59:02.871Z,12.2
2019-01-09T10:00:03.484Z,17.3
2019-01-09T10:01:03.316Z,18.4
2019-01-09T10:02:02.872Z,12.2
2019-01-09T10:03:03.739Z,12.2
2019-01-09T10:04:03.155Z,13.3
2019-01-09T10:05:03.588Z,13.3
2019-01-09T10:06:03.399Z,13.3
2019-01-09T10:07:03.400Z,13.3
2019-01-09T10:08:03.395Z,13.3
2019-01-09T10:09:03.376Z,13.3
2019-01-09T10:10:03.188Z,11.2
2019-01-09T10:11:02.958Z,11.2
2019-01-09T10:12:03.023Z,12.2
2019-01-09T10:13:03.588Z,11.2
2019-01-09T10:14:03.531Z,11.2
2019-01-09T10:15:02.729Z,13.3
2019-01-09T10:16:03.444Z,13.3
2019-01-09T10:17:03.365Z,12.2
2019-01-09T10:18:03.111Z,12.2
2019-01-09T10:19:03.222Z,14.8
2019-01-09T10:20:03.077Z,14.8
2019-01-09T10:21:03.114Z,12.2
2019-01-09T10:22:02.857Z,12.2
2019-01-09T10:23:02.875Z,14.8
2019-01-09T10:24:03.583Z,14.8
2019-01-09T10:25:02.979Z,13.3
2019-01-09T10:26:02.760Z,13.3
2019-01-09T10:27:03.471Z,13.3
2019-01-09T10:28:03.346Z,13.3
2019-01-09T10:29:03.388Z,9.7
2019-01-09T10:30:03.213Z,9.7
2019-01-09T10:31:03.779Z,11.2
2019-01-09T10:32:02.852Z,13.3
2019-01-09T10:33:03.437Z,14.8
2019-01-09T10:34:03.659Z,14.8
2019-01-09T10:35:03.073Z,18.4
2019-01-09T10:36:03.719Z,18.4
2019-01-09T10:37:03.455Z,15.8
2019-01-09T10:38:03.709Z,15.8
2019-01-09T10:39:03.749Z,12.2
2019-01-09T10:40:03.468Z,12.2
2019-01-09T10:41:03.486Z,11.2
2019-01-09T10:42:02.856Z,13.3
2019-01-09T10:43:03.268Z,15.8
2019-01-09T10:44:03.130Z,15.8
2019-01-09T10:45:03.605Z,14.8
2019-01-09T10:46:03.749Z,12.2
2019-01-09T10:47:03.643Z,14.8
2019-01-09T10:48:02.922Z,18.4
2019-01-09T10:49:03.887Z,14.8
2019-01-09T10:50:02.580Z,12.2
2019-01-09T10:51:02.773Z,12.2
2019-01-09T10:52:03.386Z,14.8
2019-01-09T10:53:03.545Z,13.3
2019-01-09T10:54:03.460Z,13.3
2019-01-09T10:55:03.722Z,13.3
2019-01-09T10:56:03.471Z,13.3
2019-01-09T10:57:02.822Z,11.2
2019-01-09T10:58:03.129Z,13.3
2019-01-09T10:59:03.375Z,12.2
2019-01-09T11:00:03.302Z,12.2
2019-01-09T11:01:03.100Z,13.3
2019-01-09T11:02:03.662Z,13.3
2019-01-09T11:03:03.880Z,13.3
2019-01-09T11:04:03.729Z,13.3
2019-01-09T11:05:03.590Z,13.3
2019-01-09T11:06:03.455Z,13.3
2019-01-09T11:07:03.193Z,13.3
2019-01-09T11:08:03.357Z,13.3
2019-01-09T11:09:03.194Z,13.3
2019-01-09T11:10:03.354Z,11.2
2019-01-09T11:11:02.942Z,8.6
2019-01-09T11:12:02.828Z,13.3
2019-01-09T11:13:02.929Z,13.3
2019-01-09T11:14:02.753Z,13.3
2019-01-09T11:15:03.076Z,13.3
2019-01-09T11:16:03.634Z,14.8
2019-01-09T11:17:03.830Z,14.8
2019-01-09T11:18:03.327Z,12.2
2019-01-09T11:19:03.037Z,12.2
2019-01-09T11:20:03.623Z,15.8
2019-01-09T11:21:03.929Z,11.2
2019-01-09T11:22:03.153Z,11.2
2019-01-09T11:23:03.846Z,11.2
2019-01-09T11:24:03.141Z,18.4
2019-01-09T11:25:03.070Z,18.4
2019-01-09T11:26:03.031Z,14.8
2019-01-09T11:27:03.805Z,17.3
2019-01-09T11:28:03.464Z,18.4
2019-01-09T11:29:03.095Z,18.4
2019-01-09T11:30:02.966Z,14.8
2019-01-09T11:31:03.096Z,12.2
2019-01-09T11:32:03.451Z,11.2
2019-01-09T11:33:03.649Z,11.2
2019-01-09T11:34:03.497Z,11.2
2019-01-09T11:35:03.484Z,11.2
2019-01-09T11:36:03.362Z,9.7
2019-01-09T11:37:02.669Z,12.2
2019-01-09T11:38:02.040Z,11.2
2019-01-09T11:39:02.092Z,9.7
2019-01-09T11:40:03.750Z,12.2
2019-01-09T11:41:03.329Z,12.2
2019-01-09T11:42:02.887Z,12.2
2019-01-09T11:43:04.069Z,12.2
2019-01-09T11:44:03.245Z,14.8
2019-01-09T11:45:03.215Z,14.8
2019-01-09T11:46:03.346Z,14.8
2019-01-09T11:47:03.500Z,14.8
2019-01-09T11:48:03.427Z,11.2
2019-01-09T11:49:02.884Z,11.2
2019-01-09T11:50:03.863Z,11.2
2019-01-09T11:51:03.500Z,11.2
2019-01-09T11:52:03.007Z,13.3
2019-01-09T11:53:03.726Z,13.3
2019-01-09T11:54:02.869Z,13.3
2019-01-09T11:55:03.627Z,11.2
2019-01-09T11:56:03.210Z,11.2
2019-01-09T11:57:03.717Z,12.2
2019-01-09T11:58:03.690Z,12.2
2019-01-09T11:59:03.441Z,11.2
2019-01-09T12:00:03.136Z,11.2
2019-01-09T12:01:03.361Z,11.2
2019-01-09T12:02:03.581Z,9.7
2019-01-09T12:03:02.941Z,9.7
2019-01-09T12:04:02.999Z,9.7
2019-01-09T12:05:02.901Z,9.7
2019-01-09T12:06:02.961Z,8.6
2019-01-09T12:07:02.057Z,9.7
2019-01-09T12:08:02.970Z,9.7
2019-01-09T12:09:05.114Z,11.2
2019-01-09T12:10:03.779Z,9.7
2019-01-09T12:11:04.619Z,9.7
2019-01-09T12:12:03.085Z,11.2
2019-01-09T12:13:03.723Z,11.2
2019-01-09T12:14:03.112Z,8.6
2019-01-09T12:15:03.913Z,8.6
2019-01-09T12:16:08.672Z,13.3
2019-01-09T12:17:03.394Z,13.3
2019-01-09T12:18:03.652Z,13.3
2019-01-09T12:19:03.396Z,12.2
2019-01-09T12:20:02.994Z,12.2
2019-01-09T12:21:03.068Z,12.2
2019-01-09T12:22:02.979Z,12.2
2019-01-09T12:23:03.044Z,13.3
2019-01-09T12:24:03.154Z,13.3
2019-01-09T12:25:03.314Z,9.7
2019-01-09T12:26:03.650Z,9.7
2019-01-09T12:27:03.636Z,13.3
2019-01-09T12:28:02.822Z,12.2
2019-01-09T12:29:02.281Z,8.6
2019-01-09T12:30:02.329Z,9.7
2019-01-09T12:31:03.667Z,13.3
2019-01-09T12:32:03.638Z,13.3
2019-01-09T12:33:03.622Z,12.2
2019-01-09T12:34:03.019Z,11.2
2019-01-09T12:35:03.427Z,9.7
2019-01-09T12:36:02.085Z,8.6
2019-01-09T12:37:02.830Z,7.2
2019-01-09T12:38:03.344Z,11.2
2019-01-09T12:39:03.877Z,11.2
2019-01-09T12:40:03.530Z,12.2
2019-01-09T12:41:03.020Z,9.7
2019-01-09T12:42:02.914Z,12.2
2019-01-09T12:43:03.043Z,12.2
2019-01-09T12:44:03.598Z,9.7
2019-01-09T12:45:03.682Z,9.7
2019-01-09T12:46:03.226Z,9.7
2019-01-09T12:47:03.336Z,7.2
2019-01-09T12:48:03.418Z,7.2
2019-01-09T12:49:02.780Z,11.2
2019-01-09T12:50:03.806Z,11.2
2019-01-09T12:51:03.531Z,11.2
2019-01-09T12:52:03.644Z,12.2
2019-01-09T12:53:03.231Z,9.7
2019-01-09T12:54:03.494Z,9.7
2019-01-09T12:55:03.393Z,9.7
2019-01-09T12:56:02.869Z,11.2
2019-01-09T12:57:03.804Z,13.3
2019-01-09T12:58:03.250Z,11.2
2019-01-09T12:59:02.937Z,9.7
2019-01-09T13:00:03.294Z,9.7
2019-01-09T13:01:03.137Z,7.2
2019-01-09T13:02:03.800Z,7.2
2019-01-09T13:03:03.017Z,7.2
2019-01-09T13:04:02.823Z,7.2
2019-01-09T13:05:03.620Z,7.2
2019-01-09T13:06:03.239Z,7.2
2019-01-09T13:07:03.247Z,7.2
2019-01-09T13:08:02.834Z,7.2
2019-01-09T13:09:03.043Z,8.6
2019-01-09T13:10:03.002Z,8.6
2019-01-09T13:11:03.275Z,8.6
2019-01-09T13:12:03.513Z,9.7
2019-01-09T13:13:03.142Z,9.7
2019-01-09T13:14:02.889Z,11.2
2019-01-09T13:15:03.577Z,9.7
2019-01-09T13:16:03.621Z,9.7
2019-01-09T13:17:12.522Z,9.7
2019-01-09T13:18:03.084Z,8.6
2019-01-09T13:19:03.067Z,7.2
2019-01-09T13:20:03.147Z,7.2
2019-01-09T13:21:02.854Z,9.7
2019-01-09T13:22:02.746Z,7.2
2019-01-09T13:23:03.748Z,7.2
2019-01-09T13:24:03.180Z,7.2
2019-01-09T13:25:03.218Z,7.2
2019-01-09T13:26:03.161Z,5
2019-01-09T13:27:02.632Z,7.2
2019-01-09T13:28:03.502Z,6.1
2019-01-09T13:29:03.005Z,6.1
2019-01-09T13:30:03.049Z,6.1
2019-01-09T13:31:02.756Z,6.1
2019-01-09T13:32:02.994Z,5
2019-01-09T13:33:03.290Z,6.1
2019-01-09T13:34:03.804Z,6.1
2019-01-09T13:35:02.994Z,5
2019-01-09T13:36:03.124Z,5
2019-01-09T13:37:03.419Z,6.1
2019-01-09T13:38:03.103Z,6.1
2019-01-09T13:39:02.309Z,6.1
2019-01-09T13:40:02.860Z,7.2
2019-01-09T13:41:03.132Z,8.6
2019-01-09T13:42:03.741Z,9.7
2019-01-09T13:43:03.106Z,7.2
2019-01-09T13:44:03.699Z,8.6
2019-01-09T13:45:03.750Z,8.6
2019-01-09T13:46:03.232Z,9.7
2019-01-09T13:47:03.374Z,7.2
2019-01-09T13:48:03.557Z,9.7
2019-01-09T13:49:03.350Z,9.7
2019-01-09T13:50:03.036Z,9.7
2019-01-09T13:51:03.623Z,9.7
2019-01-09T13:52:03.139Z,12.2
2019-01-09T13:53:03.308Z,13.3
2019-01-09T13:54:02.932Z,9.7
2019-01-09T13:55:03.248Z,9.7
2019-01-09T13:56:03.412Z,9.7
2019-01-09T13:57:02.827Z,9.7
2019-01-09T13:58:03.164Z,11.2
2019-01-09T13:59:03.055Z,11.2
2019-01-09T14:00:03.123Z,8.6
2019-01-09T14:01:03.212Z,8.6
2019-01-09T14:02:02.815Z,8.6
2019-01-09T14:03:02.677Z,8.6
2019-01-09T14:04:02.982Z,8.6
2019-01-09T14:05:04.108Z,9.7
2019-01-09T14:06:03.396Z,11.2
2019-01-09T14:07:03.736Z,11.2
2019-01-09T14:08:03.619Z,8.6
2019-01-09T14:09:03.339Z,11.2
2019-01-09T14:10:03.079Z,12.2
2019-01-09T14:11:03.314Z,9.7
2019-01-09T14:12:03.278Z,8.6
2019-01-09T14:13:02.799Z,8.6
2019-01-09T14:14:03.602Z,8.6
2019-01-09T14:15:02.949Z,8.6
2019-01-09T14:16:03.668Z,7.2
2019-01-09T14:17:03.816Z,7.2
2019-01-09T14:18:03.048Z,9.7
2019-01-09T14:19:03.278Z,9.7
2019-01-09T14:20:03.341Z,12.2
2019-01-09T14:21:03.624Z,11.2
2019-01-09T14:22:03.426Z,8.6
2019-01-09T14:23:03.329Z,8.6
2019-01-09T14:24:02.883Z,9.7
2019-01-09T14:25:03.065Z,12.2
2019-01-09T14:26:02.834Z,8.6
2019-01-09T14:27:03.011Z,7.2
2019-01-09T14:28:02.956Z,9.7
2019-01-09T14:29:03.272Z,11.2
2019-01-09T14:30:03.137Z,7.2
2019-01-09T14:31:03.587Z,8.6
2019-01-09T14:32:01.851Z,11.2
2019-01-09T14:33:03.298Z,11.2
2019-01-09T14:34:03.650Z,8.6
2019-01-09T14:35:03.098Z,8.6
2019-01-09T14:36:03.578Z,12.2
2019-01-09T14:37:03.693Z,12.2
2019-01-09T14:38:03.409Z,8.6
2019-01-09T14:39:03.295Z,7.2
2019-01-09T14:40:03.658Z,7.2
2019-01-09T14:41:02.990Z,8.6
2019-01-09T14:42:03.468Z,13.3
2019-01-09T14:43:02.872Z,13.3
2019-01-09T14:44:03.484Z,13.3
2019-01-09T14:45:02.969Z,9.7
2019-01-09T14:46:02.810Z,9.7
2019-01-09T14:47:03.283Z,11.2
2019-01-09T14:48:02.184Z,9.7
2019-01-09T14:49:03.016Z,11.2
2019-01-09T14:50:02.057Z,12.2
2019-01-09T14:51:02.167Z,11.2
2019-01-09T14:52:02.990Z,11.2
2019-01-09T14:53:03.212Z,9.7
2019-01-09T14:54:03.109Z,12.2
2019-01-09T14:55:03.768Z,11.2
2019-01-09T14:56:03.274Z,9.7
2019-01-09T14:57:02.738Z,9.7
2019-01-09T14:58:03.125Z,9.7
2019-01-09T14:59:03.265Z,11.2
2019-01-09T15:00:03.575Z,12.2
2019-01-09T15:01:03.096Z,12.2
2019-01-09T15:02:02.959Z,12.2
2019-01-09T15:03:02.964Z,12.2
2019-01-09T15:04:04.023Z,12.2
2019-01-09T15:05:03.218Z,12.2
2019-01-09T15:06:03.727Z,12.2
2019-01-09T15:07:02.717Z,9.7
2019-01-09T15:08:03.519Z,8.6
2019-01-09T15:09:03.159Z,8.6
2019-01-09T15:10:03.864Z,11.2
2019-01-09T15:11:02.814Z,11.2
2019-01-09T15:12:02.011Z,12.2
2019-01-09T15:13:03.396Z,9.7
2019-01-09T15:14:03.697Z,9.7
2019-01-09T15:15:03.018Z,8.6
2019-01-09T15:16:02.926Z,9.7
2019-01-09T15:17:03.779Z,9.7
2019-01-09T15:18:03.360Z,12.2
2019-01-09T15:19:02.817Z,12.2
2019-01-09T15:20:03.601Z,12.2